Time;durP1;ratioP1;P1;durP2;ratioP2;P2;SDS_P1;SDS_P2;PMS_P1;PMS_P2;Temp;Humidity;BMP_temperature;BMP_pressure;BME280_temperature;BME280_humidity;BME280_pressure;Samples;Min_cycle;Max_cycle;Signal;HPM_P1;HPM_P2
2021/07/25 00:02:25;;;;;;;6.43;3.88;;;22.50;98.30;;;;;;4718931;30;20340;-80
2021/07/25 00:04:51;;;;;;;8.98;4.15;;;22.50;98.10;;;;;;4703922;30;20075;-80
2021/07/25 00:07:16;;;;;;;8.82;3.80;;;22.50;98.30;;;;;;4723080;30;20532;-80
2021/07/25 00:09:42;;;;;;;7.15;4.18;;;22.30;98.30;;;;;;4721253;30;20060;-80
2021/07/25 00:12:07;;;;;;;7.55;4.20;;;22.30;98.40;;;;;;4717854;30;20075;-80
2021/07/25 00:14:33;;;;;;;8.38;3.80;;;22.30;98.60;;;;;;4721403;30;20099;-80
2021/07/25 00:16:59;;;;;;;9.73;4.93;;;22.30;98.50;;;;;;4716494;30;20053;-81
2021/07/25 00:19:25;;;;;;;6.13;4.07;;;22.10;99.10;;;;;;4718882;30;20052;-80
2021/07/25 00:21:50;;;;;;;7.28;3.72;;;21.90;99.50;;;;;;4718972;30;20065;-80
2021/07/25 00:24:22;;;;;;;8.57;4.07;;;21.90;99.80;;;;;;4725024;30;20574;-80
2021/07/25 00:26:49;;;;;;;8.57;4.18;;;21.90;99.90;;;;;;4718964;30;20071;-80
2021/07/25 00:29:16;;;;;;;9.07;3.60;;;21.90;99.50;;;;;;4715618;30;20089;-80
2021/07/25 00:31:42;;;;;;;6.80;3.60;;;21.90;99.00;;;;;;4716139;30;20041;-80
2021/07/25 00:34:08;;;;;;;7.57;4.10;;;22.00;99.10;;;;;;4723108;30;20065;-80
2021/07/25 00:36:33;;;;;;;5.90;3.50;;;21.90;99.10;;;;;;4719525;30;20131;-81
2021/07/25 00:38:59;;;;;;;9.05;3.92;;;21.70;99.10;;;;;;4700697;30;20131;-80
2021/07/25 00:41:25;;;;;;;7.18;3.60;;;21.80;99.00;;;;;;4720227;30;20042;-82
2021/07/25 00:43:51;;;;;;;8.48;3.88;;;21.70;99.00;;;;;;4718193;30;20040;-82
2021/07/25 00:46:18;;;;;;;8.68;3.80;;;21.80;99.00;;;;;;4719714;30;20033;-82
2021/07/25 00:48:47;;;;;;;8.43;3.67;;;21.70;98.90;;;;;;4721194;30;20316;-82
2021/07/25 00:51:13;;;;;;;8.35;4.20;;;21.70;99.00;;;;;;4722790;30;20654;-82
2021/07/25 00:53:41;;;;;;;8.13;3.97;;;21.70;99.10;;;;;;4722332;30;20411;-82
2021/07/25 00:56:08;;;;;;;7.38;4.20;;;21.60;99.30;;;;;;4720304;30;20048;-82
2021/07/25 00:58:39;;;;;;;7.30;3.80;;;21.50;99.30;;;;;;4722467;30;20570;-82
2021/07/25 01:01:08;;;;;;;6.97;3.80;;;21.50;99.30;;;;;;4721569;30;20100;-82
2021/07/25 01:03:40;;;;;;;6.88;3.50;;;21.40;99.30;;;;;;4722860;30;20045;-82
2021/07/25 01:06:15;;;;;;;9.02;4.25;;;21.40;99.30;;;;;;4721725;30;20102;-82
2021/07/25 01:08:58;;;;;;;8.88;3.65;;;21.30;99.20;;;;;;4721803;30;20120;-82
2021/07/25 01:11:39;;;;;;;8.55;3.90;;;21.30;99.30;;;;;;4718894;30;20344;-82
2021/07/25 01:14:05;;;;;;;7.28;3.85;;;21.40;99.40;;;;;;4719574;30;20053;-82
2021/07/25 01:16:32;;;;;;;7.10;3.80;;;21.30;99.70;;;;;;4724587;30;20049;-82
2021/07/25 01:18:58;;;;;;;11.00;4.68;;;21.20;99.90;;;;;;4718975;30;20040;-82
2021/07/25 01:21:23;;;;;;;9.48;3.88;;;21.20;99.90;;;;;;4724048;30;20149;-82
2021/07/25 01:23:50;;;;;;;5.75;4.05;;;21.10;99.90;;;;;;4718317;30;20116;-82
2021/07/25 01:26:23;;;;;;;6.45;3.50;;;21.20;99.90;;;;;;4720151;30;20048;-82
2021/07/25 01:28:50;;;;;;;8.40;4.00;;;21.20;99.90;;;;;;4720868;30;20150;-82
2021/07/25 01:31:21;;;;;;;7.60;3.90;;;21.20;99.90;;;;;;4727281;30;20063;-82
2021/07/25 01:33:48;;;;;;;9.98;4.50;;;21.20;99.90;;;;;;4725858;30;20118;-82
2021/07/25 01:36:15;;;;;;;6.47;3.42;;;21.20;99.90;;;;;;4724555;30;20045;-82
2021/07/25 01:38:41;;;;;;;6.50;4.00;;;21.00;99.90;;;;;;4723780;30;20099;-82
2021/07/25 01:41:15;;;;;;;7.03;4.50;;;21.00;99.90;;;;;;4718930;30;20036;-82
2021/07/25 01:43:43;;;;;;;8.05;3.97;;;20.90;99.90;;;;;;4723905;30;20051;-82
2021/07/25 01:46:09;;;;;;;8.52;3.95;;;20.80;99.90;;;;;;4719057;30;20041;-82
2021/07/25 01:48:38;;;;;;;6.82;4.22;;;20.90;99.90;;;;;;4722358;30;20041;-82
2021/07/25 01:51:05;;;;;;;9.73;3.90;;;20.90;99.90;;;;;;4720030;30;20130;-82
2021/07/25 01:53:32;;;;;;;7.85;4.45;;;20.90;99.90;;;;;;4722243;30;20404;-82
2021/07/25 01:55:58;;;;;;;7.57;3.88;;;20.80;99.90;;;;;;4722109;30;20047;-82
2021/07/25 01:58:23;;;;;;;7.32;3.63;;;20.90;99.90;;;;;;4718885;30;20044;-82
2021/07/25 02:00:50;;;;;;;7.50;4.15;;;20.70;99.90;;;;;;4721798;30;20080;-82
2021/07/25 02:03:28;;;;;;;6.65;3.67;;;20.70;99.90;;;;;;4719916;30;20066;-82
2021/07/25 02:05:54;;;;;;;6.55;3.88;;;20.80;99.90;;;;;;4721932;30;20102;-82
2021/07/25 02:08:20;;;;;;;6.32;3.92;;;20.70;99.90;;;;;;4720556;30;20041;-83
2021/07/25 02:10:47;;;;;;;7.07;3.63;;;20.70;99.90;;;;;;4721099;30;20143;-82
2021/07/25 02:13:14;;;;;;;8.88;4.30;;;20.70;99.90;;;;;;4716205;30;20068;-82
2021/07/25 02:15:40;;;;;;;8.27;4.03;;;20.60;99.90;;;;;;4718937;30;20061;-82
2021/07/25 02:18:06;;;;;;;7.35;3.88;;;20.50;99.90;;;;;;4719064;30;20083;-82
2021/07/25 02:20:32;;;;;;;9.70;3.70;;;20.60;99.90;;;;;;4721887;30;20049;-82
2021/07/25 02:22:58;;;;;;;7.07;4.20;;;20.60;99.90;;;;;;4719319;30;20064;-82
2021/07/25 02:25:23;;;;;;;8.27;3.92;;;20.60;99.90;;;;;;4725946;30;20915;-82
2021/07/25 02:27:49;;;;;;;10.05;4.13;;;20.60;99.90;;;;;;4719999;30;20507;-82
2021/07/25 02:30:15;;;;;;;9.68;3.83;;;20.60;99.90;;;;;;4719455;30;20059;-82
2021/07/25 02:32:40;;;;;;;9.25;4.32;;;20.60;99.90;;;;;;4727015;30;20045;-82
2021/07/25 02:35:06;;;;;;;6.45;3.85;;;20.50;99.90;;;;;;4718500;30;20065;-82
2021/07/25 02:37:32;;;;;;;6.43;4.10;;;20.40;99.90;;;;;;4721096;30;20048;-82
2021/07/25 02:39:58;;;;;;;7.57;4.55;;;20.50;99.90;;;;;;4719815;30;20404;-82
2021/07/25 02:42:23;;;;;;;7.88;3.90;;;20.50;99.90;;;;;;4724487;30;20037;-82
2021/07/25 02:44:49;;;;;;;7.95;4.28;;;20.40;99.90;;;;;;4721288;30;20052;-82
2021/07/25 02:47:15;;;;;;;9.02;4.28;;;20.30;99.90;;;;;;4719635;30;20074;-82
2021/07/25 02:49:40;;;;;;;6.13;3.88;;;20.40;99.90;;;;;;4721072;30;20048;-82
2021/07/25 02:52:06;;;;;;;11.77;4.05;;;20.40;99.90;;;;;;4719330;30;20550;-82
2021/07/25 02:54:32;;;;;;;13.18;4.60;;;20.30;99.90;;;;;;4725808;30;20076;-82
2021/07/25 02:56:57;;;;;;;9.23;4.40;;;20.10;99.90;;;;;;4719208;30;20048;-82
2021/07/25 02:59:23;;;;;;;8.45;3.75;;;20.20;99.90;;;;;;4718925;30;20053;-82
2021/07/25 03:01:50;;;;;;;7.28;4.25;;;20.20;99.90;;;;;;4719939;30;20103;-82
2021/07/25 03:04:16;;;;;;;8.10;4.75;;;20.20;99.90;;;;;;4719484;30;20055;-82
2021/07/25 03:06:42;;;;;;;6.97;4.32;;;20.10;99.90;;;;;;4725494;30;20049;-82
2021/07/25 03:09:08;;;;;;;7.60;4.90;;;20.10;99.90;;;;;;4716798;30;20110;-81
2021/07/25 03:11:34;;;;;;;9.90;5.07;;;20.10;99.90;;;;;;4721180;30;20107;-82
2021/07/25 03:14:00;;;;;;;9.73;5.18;;;20.00;99.90;;;;;;4717966;30;20068;-82
2021/07/25 03:16:25;;;;;;;8.00;4.50;;;19.90;99.90;;;;;;4719453;30;20407;-82
2021/07/25 03:18:51;;;;;;;9.95;4.57;;;19.90;99.90;;;;;;4719696;30;20049;-81
2021/07/25 03:21:17;;;;;;;8.65;4.80;;;19.80;99.90;;;;;;4720180;30;20041;-81
2021/07/25 03:23:43;;;;;;;8.30;4.22;;;19.70;99.90;;;;;;4718879;30;20114;-81
2021/07/25 03:26:09;;;;;;;7.47;4.97;;;19.70;99.90;;;;;;4715688;30;20435;-81
2021/07/25 03:28:34;;;;;;;7.35;5.13;;;19.70;99.90;;;;;;4723015;30;20434;-82
2021/07/25 03:31:00;;;;;;;10.15;4.68;;;19.70;99.90;;;;;;4718505;30;20174;-82
2021/07/25 03:33:26;;;;;;;9.65;5.53;;;19.60;99.90;;;;;;4722480;30;20053;-82
2021/07/25 03:35:52;;;;;;;9.00;5.20;;;19.60;99.90;;;;;;4716909;30;20116;-81
2021/07/25 03:38:18;;;;;;;9.52;5.22;;;19.50;99.90;;;;;;4718976;30;20052;-81
2021/07/25 03:40:44;;;;;;;8.55;4.90;;;19.60;99.90;;;;;;4719358;30;20496;-82
2021/07/25 03:43:11;;;;;;;7.95;5.15;;;19.50;99.90;;;;;;4723419;30;20103;-82
2021/07/25 03:45:41;;;;;;;7.70;5.00;;;19.40;99.90;;;;;;4717137;30;20044;-82
2021/07/25 03:48:07;;;;;;;10.32;5.40;;;19.40;99.90;;;;;;4721500;30;20115;-81
2021/07/25 03:50:34;;;;;;;10.48;5.05;;;19.40;99.90;;;;;;4715914;30;20443;-82
2021/07/25 03:53:00;;;;;;;8.68;4.82;;;19.40;99.90;;;;;;4723483;30;20440;-82
2021/07/25 03:55:26;;;;;;;8.85;5.07;;;19.50;99.90;;;;;;4718679;30;20044;-81
2021/07/25 03:57:52;;;;;;;10.43;5.50;;;19.60;99.90;;;;;;4717581;30;20048;-81
2021/07/25 04:00:18;;;;;;;8.52;5.05;;;19.60;99.90;;;;;;4715081;30;20140;-82
2021/07/25 04:02:44;;;;;;;7.55;4.40;;;19.50;99.90;;;;;;4720472;30;20593;-81
2021/07/25 04:05:10;;;;;;;8.20;4.85;;;19.40;99.90;;;;;;4718385;30;20079;-81
2021/07/25 04:07:36;;;;;;;9.68;5.10;;;19.40;99.90;;;;;;4718060;30;20040;-81
2021/07/25 04:10:02;;;;;;;10.93;5.13;;;19.30;99.90;;;;;;4718949;30;20055;-82
2021/07/25 04:12:28;;;;;;;10.32;5.53;;;19.40;99.90;;;;;;4701699;30;20197;-81
2021/07/25 04:14:54;;;;;;;8.95;4.60;;;19.30;99.90;;;;;;4726466;30;20076;-81
2021/07/25 04:17:19;;;;;;;8.70;4.40;;;19.40;99.90;;;;;;4715773;30;20048;-81
2021/07/25 04:19:45;;;;;;;8.80;5.32;;;19.30;99.90;;;;;;4717672;30;20045;-82
2021/07/25 04:22:11;;;;;;;7.65;4.47;;;19.40;99.90;;;;;;4721496;30;20044;-81
2021/07/25 04:24:36;;;;;;;9.60;4.82;;;19.30;99.90;;;;;;4723762;30;20562;-81
2021/07/25 04:27:02;;;;;;;7.65;4.82;;;19.40;99.90;;;;;;4721831;30;20053;-81
2021/07/25 04:29:28;;;;;;;9.68;4.85;;;19.30;99.90;;;;;;4729265;30;20507;-82
2021/07/25 04:31:54;;;;;;;7.00;4.40;;;19.30;99.90;;;;;;4721879;30;20517;-81
2021/07/25 04:34:21;;;;;;;8.70;5.18;;;19.30;99.90;;;;;;4721279;30;20127;-82
2021/07/25 04:36:46;;;;;;;10.85;5.45;;;19.30;99.90;;;;;;4721612;30;20044;-81
2021/07/25 04:39:12;;;;;;;8.48;4.90;;;19.30;99.90;;;;;;4720115;30;20605;-81
2021/07/25 04:41:55;;;;;;;8.95;4.75;;;19.30;99.90;;;;;;4721310;30;20137;-81
2021/07/25 04:44:30;;;;;;;10.05;5.53;;;19.40;99.90;;;;;;4702599;30;20091;-81
2021/07/25 04:47:02;;;;;;;9.60;4.63;;;19.40;99.90;;;;;;4720963;30;20107;-82
2021/07/25 04:49:35;;;;;;;7.40;4.55;;;19.20;99.90;;;;;;4721900;30;20098;-81
2021/07/25 04:52:01;;;;;;;7.00;4.22;;;19.30;99.90;;;;;;4722490;30;20041;-82
2021/07/25 04:54:33;;;;;;;10.07;4.43;;;19.30;99.90;;;;;;4721069;30;20507;-81
2021/07/25 04:57:03;;;;;;;9.38;4.68;;;19.20;99.90;;;;;;4720358;30;20048;-81
2021/07/25 04:59:33;;;;;;;11.25;4.70;;;19.20;99.90;;;;;;4721144;30;20320;-81
2021/07/25 05:02:03;;;;;;;10.85;4.97;;;19.20;99.90;;;;;;4727371;30;20067;-81
2021/07/25 05:04:30;;;;;;;7.93;4.15;;;19.30;99.90;;;;;;4723052;30;20045;-81
2021/07/25 05:06:56;;;;;;;9.88;4.32;;;19.20;99.90;;;;;;4726474;30;20048;-81
2021/07/25 05:09:22;;;;;;;8.07;4.57;;;19.30;99.90;;;;;;4720773;30;20125;-82
2021/07/25 05:12:04;;;;;;;7.20;4.03;;;19.20;99.90;;;;;;4721728;30;20076;-81
2021/07/25 05:14:33;;;;;;;7.25;4.05;;;19.20;99.90;;;;;;4719430;30;20124;-81
2021/07/25 05:17:22;;;;;;;7.95;4.32;;;19.10;99.90;;;;;;4724961;30;20659;-81
2021/07/25 05:19:48;;;;;;;9.80;5.30;;;19.20;99.90;;;;;;4720720;30;20397;-81
2021/07/25 05:22:34;;;;;;;7.53;4.50;;;19.20;99.90;;;;;;4720676;30;20048;-81
2021/07/25 05:25:05;;;;;;;9.70;4.60;;;19.20;99.90;;;;;;4720265;30;20423;-81
2021/07/25 05:27:41;;;;;;;6.22;4.07;;;19.30;99.90;;;;;;4722974;30;20049;-81
2021/07/25 05:30:09;;;;;;;7.75;4.50;;;19.30;99.90;;;;;;4718936;30;20040;-82
2021/07/25 05:32:35;;;;;;;9.75;4.20;;;19.30;99.90;;;;;;4722119;30;20063;-82
2021/07/25 05:35:00;;;;;;;9.13;4.13;;;19.30;99.90;;;;;;4720149;30;20501;-81
2021/07/25 05:37:26;;;;;;;8.48;4.30;;;19.40;99.90;;;;;;4721195;30;20052;-81
2021/07/25 05:39:51;;;;;;;7.18;4.05;;;19.40;99.90;;;;;;4721722;30;20071;-81
2021/07/25 05:42:18;;;;;;;8.93;4.90;;;19.40;99.90;;;;;;4719806;30;20055;-82
2021/07/25 05:44:43;;;;;;;7.22;3.92;;;19.40;99.90;;;;;;4721552;30;20228;-80
2021/07/25 05:47:09;;;;;;;7.47;4.32;;;19.40;99.90;;;;;;4718652;30;20040;-81
2021/07/25 05:49:34;;;;;;;7.38;4.28;;;19.50;99.90;;;;;;4721664;30;20053;-82
2021/07/25 05:52:00;;;;;;;10.80;4.45;;;19.30;99.90;;;;;;4718888;30;20060;-82
2021/07/25 05:54:26;;;;;;;6.50;4.32;;;19.30;99.90;;;;;;4721746;30;20068;-81
2021/07/25 05:56:51;;;;;;;10.77;4.78;;;19.30;99.90;;;;;;4717597;30;20548;-81
2021/07/25 05:59:17;;;;;;;10.90;5.97;;;19.20;99.90;;;;;;4725127;30;20547;-81
2021/07/25 06:01:44;;;;;;;9.70;4.90;;;19.20;99.90;;;;;;4718876;30;20131;-82
2021/07/25 06:04:10;;;;;;;10.05;4.93;;;19.20;99.90;;;;;;4720083;30;20384;-82
2021/07/25 06:06:36;;;;;;;10.38;4.63;;;19.20;99.90;;;;;;4723888;30;20056;-81
2021/07/25 06:09:06;;;;;;;8.43;4.50;;;19.20;99.90;;;;;;4726525;30;20539;-81
2021/07/25 06:11:32;;;;;;;11.02;4.65;;;19.20;99.90;;;;;;4720939;30;20418;-81
2021/07/25 06:13:58;;;;;;;8.57;4.57;;;19.40;99.90;;;;;;4723419;30;20044;-82
2021/07/25 06:16:24;;;;;;;8.70;4.70;;;19.40;99.90;;;;;;4725341;30;20070;-81
2021/07/25 06:18:49;;;;;;;9.05;4.53;;;19.40;99.90;;;;;;4723447;30;20040;-82
2021/07/25 06:21:16;;;;;;;7.07;3.83;;;19.30;99.90;;;;;;4717135;30;20073;-81
2021/07/25 06:23:42;;;;;;;8.63;4.80;;;19.50;99.90;;;;;;4725030;30;20126;-81
2021/07/25 06:26:07;;;;;;;8.57;4.30;;;19.50;99.90;;;;;;4725523;30;20041;-81
2021/07/25 06:28:33;;;;;;;7.25;4.63;;;19.60;99.90;;;;;;4723739;30;20784;-82
2021/07/25 06:30:59;;;;;;;8.48;4.47;;;19.70;99.90;;;;;;4729640;30;20102;-81
2021/07/25 06:33:28;;;;;;;8.05;4.82;;;19.80;99.90;;;;;;4721150;30;20056;-81
2021/07/25 06:35:55;;;;;;;8.98;5.07;;;19.80;99.90;;;;;;4725673;30;20791;-81
2021/07/25 06:38:21;;;;;;;8.25;4.53;;;19.80;99.90;;;;;;4721704;30;20111;-81
2021/07/25 06:40:50;;;;;;;10.95;4.82;;;19.90;99.90;;;;;;4726305;30;20174;-81
2021/07/25 06:43:17;;;;;;;8.38;4.05;;;19.80;99.90;;;;;;4720325;30;20132;-81
2021/07/25 06:45:44;;;;;;;8.75;4.72;;;20.00;99.90;;;;;;4723012;30;20549;-81
2021/07/25 06:48:20;;;;;;;12.50;5.78;;;19.90;99.90;;;;;;4722558;30;20123;-81
2021/07/25 06:50:48;;;;;;;8.20;4.50;;;20.10;99.90;;;;;;4724186;30;20044;-81
2021/07/25 06:53:14;;;;;;;7.82;4.30;;;20.20;99.90;;;;;;4718850;30;20048;-81
2021/07/25 06:55:40;;;;;;;8.32;4.53;;;20.20;99.90;;;;;;4726966;30;20046;-81
2021/07/25 06:58:05;;;;;;;8.27;4.53;;;20.20;99.90;;;;;;4725775;30;20160;-81
2021/07/25 07:00:31;;;;;;;9.63;4.90;;;20.20;99.90;;;;;;4721526;30;20052;-82
2021/07/25 07:02:57;;;;;;;6.60;4.30;;;20.30;99.90;;;;;;4722038;30;20099;-81
2021/07/25 07:05:25;;;;;;;8.80;4.50;;;20.30;99.90;;;;;;4724763;30;20051;-82
2021/07/25 07:07:52;;;;;;;7.75;4.53;;;20.40;99.90;;;;;;4721823;30;20519;-82
2021/07/25 07:10:21;;;;;;;7.60;4.57;;;20.20;99.90;;;;;;4721952;30;20048;-81
2021/07/25 07:12:48;;;;;;;7.38;4.90;;;20.20;99.90;;;;;;4726630;30;20036;-82
2021/07/25 07:15:15;;;;;;;7.47;4.95;;;20.20;99.90;;;;;;4723546;30;20246;-81
2021/07/25 07:17:41;;;;;;;10.77;4.55;;;20.10;99.90;;;;;;4723143;30;20044;-81
2021/07/25 07:20:09;;;;;;;9.95;5.20;;;20.20;99.90;;;;;;4726143;30;20049;-81
2021/07/25 07:22:35;;;;;;;8.77;4.32;;;20.30;99.90;;;;;;4718615;30;20060;-81
2021/07/25 07:25:02;;;;;;;7.00;4.63;;;20.50;99.90;;;;;;4726506;30;20067;-81
2021/07/25 07:27:28;;;;;;;9.77;4.43;;;20.50;99.90;;;;;;4722130;30;20044;-81
2021/07/25 07:29:55;;;;;;;8.07;4.05;;;20.60;99.90;;;;;;4724865;30;20377;-81
2021/07/25 07:32:21;;;;;;;9.23;5.10;;;20.60;99.90;;;;;;4720038;30;20045;-82
2021/07/25 07:34:46;;;;;;;7.78;4.50;;;20.70;99.90;;;;;;4723017;30;20471;-81
2021/07/25 07:37:12;;;;;;;7.90;4.70;;;20.60;99.90;;;;;;4720510;30;20052;-81
2021/07/25 07:39:39;;;;;;;7.45;4.85;;;20.40;99.90;;;;;;4719239;30;20103;-82
2021/07/25 07:42:06;;;;;;;8.88;5.00;;;20.40;99.90;;;;;;4722607;30;20037;-82
2021/07/25 07:44:33;;;;;;;7.70;4.75;;;20.60;99.90;;;;;;4726405;30;20049;-81
2021/07/25 07:46:59;;;;;;;11.98;4.75;;;20.60;99.90;;;;;;4714911;30;20145;-82
2021/07/25 07:49:25;;;;;;;7.07;4.68;;;20.50;99.90;;;;;;4720382;30;20053;-82
2021/07/25 07:51:50;;;;;;;7.05;4.32;;;20.50;99.90;;;;;;4719109;30;20041;-82
2021/07/25 07:54:16;;;;;;;8.07;4.13;;;20.50;99.90;;;;;;4725922;30;20053;-81
2021/07/25 07:56:42;;;;;;;8.93;4.40;;;20.60;99.90;;;;;;4726279;30;20049;-81
2021/07/25 07:59:07;;;;;;;12.38;5.07;;;20.60;99.90;;;;;;4720115;30;20087;-81
2021/07/25 08:01:33;;;;;;;7.57;4.85;;;20.40;99.90;;;;;;4715745;30;20052;-81
2021/07/25 08:03:58;;;;;;;9.40;4.28;;;20.40;99.90;;;;;;4719491;30;20484;-82
2021/07/25 08:06:24;;;;;;;8.80;5.15;;;20.50;99.90;;;;;;4720455;30;20140;-81
2021/07/25 08:08:50;;;;;;;7.88;4.55;;;20.50;99.90;;;;;;4723076;30;20080;-81
2021/07/25 08:11:15;;;;;;;8.27;4.45;;;20.60;99.90;;;;;;4720064;30;20044;-81
2021/07/25 08:13:43;;;;;;;6.55;4.47;;;20.70;99.90;;;;;;4727945;30;20052;-81
2021/07/25 08:16:09;;;;;;;8.00;4.30;;;20.70;99.90;;;;;;4720825;30;20040;-82
2021/07/25 08:18:35;;;;;;;8.30;4.35;;;20.70;99.90;;;;;;4721367;30;20396;-81
2021/07/25 08:21:02;;;;;;;9.40;5.13;;;20.50;99.90;;;;;;4723862;30;20671;-81
2021/07/25 08:23:27;;;;;;;7.65;4.97;;;20.30;99.90;;;;;;4716886;30;20044;-81
2021/07/25 08:25:53;;;;;;;8.98;4.45;;;20.30;99.90;;;;;;4710026;30;20394;-82
2021/07/25 08:28:19;;;;;;;7.85;4.57;;;20.30;99.90;;;;;;4724574;30;20134;-81
2021/07/25 08:30:45;;;;;;;7.50;4.07;;;20.20;99.90;;;;;;4720828;30;20415;-81
2021/07/25 08:33:10;;;;;;;8.13;4.40;;;20.20;99.90;;;;;;4723044;30;20173;-81
2021/07/25 08:35:36;;;;;;;7.32;3.92;;;20.30;99.90;;;;;;4723371;30;20055;-81
2021/07/25 08:38:02;;;;;;;7.10;3.95;;;20.30;99.90;;;;;;4724762;30;20407;-81
2021/07/25 08:40:32;;;;;;;7.22;3.70;;;20.30;99.90;;;;;;4721287;30;20041;-81
2021/07/25 08:43:04;;;;;;;6.72;3.72;;;20.40;99.90;;;;;;4724488;30;20076;-81
2021/07/25 08:45:32;;;;;;;6.40;3.88;;;20.60;99.90;;;;;;4722984;30;20036;-81
2021/07/25 08:48:11;;;;;;;7.03;3.65;;;20.50;99.90;;;;;;4725070;30;20127;-81
2021/07/25 08:50:42;;;;;;;7.75;3.70;;;20.60;99.90;;;;;;4723271;30;20071;-81
2021/07/25 08:53:17;;;;;;;7.70;4.63;;;20.50;99.90;;;;;;4724749;30;20456;-81
2021/07/25 08:55:46;;;;;;;6.53;3.72;;;20.40;99.90;;;;;;4724274;30;20047;-81
2021/07/25 08:58:13;;;;;;;7.47;3.80;;;20.40;99.90;;;;;;4724760;30;20544;-81
2021/07/25 09:00:39;;;;;;;8.13;3.83;;;20.40;99.90;;;;;;4721955;30;20068;-81
2021/07/25 09:03:07;;;;;;;7.93;4.78;;;20.70;99.90;;;;;;4725713;30;20061;-81
2021/07/25 09:05:33;;;;;;;12.15;3.70;;;20.50;99.90;;;;;;4722255;30;20045;-81
2021/07/25 09:08:02;;;;;;;11.30;4.88;;;20.30;99.90;;;;;;4718964;30;20120;-81
2021/07/25 09:10:28;;;;;;;8.15;4.60;;;20.30;99.90;;;;;;4728766;30;20049;-81
2021/07/25 09:12:55;;;;;;;35.97;10.05;;;20.40;99.90;;;;;;4726895;30;20122;-82
2021/07/25 09:15:32;;;;;;;31.02;10.88;;;20.30;99.90;;;;;;4725202;30;20377;-82
2021/07/25 09:17:59;;;;;;;9.75;4.88;;;20.10;99.90;;;;;;4728735;30;20036;-81
2021/07/25 09:20:30;;;;;;;8.43;5.68;;;19.90;99.90;;;;;;4723877;30;20128;-81
2021/07/25 09:22:57;;;;;;;10.05;5.88;;;20.00;99.90;;;;;;4726808;30;20044;-81
2021/07/25 09:25:29;;;;;;;10.15;5.60;;;20.20;99.90;;;;;;4722495;30;20095;-81
2021/07/25 09:27:57;;;;;;;13.65;6.28;;;20.20;99.90;;;;;;4729497;30;20061;-81
2021/07/25 09:30:30;;;;;;;12.70;6.60;;;20.10;99.90;;;;;;4726405;30;20057;-81
2021/07/25 09:32:57;;;;;;;9.80;5.70;;;20.20;99.90;;;;;;4722162;30;20590;-81
2021/07/25 09:35:31;;;;;;;8.02;5.30;;;20.20;99.90;;;;;;4724757;30;20051;-82
2021/07/25 09:38:10;;;;;;;9.07;5.18;;;20.50;99.90;;;;;;4726835;30;20048;-82
2021/07/25 09:40:38;;;;;;;12.25;6.40;;;20.60;99.90;;;;;;4721361;30;20041;-81
2021/07/25 09:43:08;;;;;;;14.57;5.97;;;20.90;99.90;;;;;;4724128;30;20128;-82
2021/07/25 09:45:55;;;;;;;9.30;4.85;;;21.00;99.90;;;;;;4724447;30;20033;-82
2021/07/25 09:48:24;;;;;;;7.72;5.43;;;21.20;99.90;;;;;;4726949;30;20480;-82
2021/07/25 09:50:51;;;;;;;8.57;5.47;;;21.40;99.90;;;;;;4726617;30;20092;-81
2021/07/25 09:53:17;;;;;;;9.20;5.22;;;21.40;99.90;;;;;;4723651;30;20053;-82
2021/07/25 09:55:44;;;;;;;10.15;4.47;;;21.30;99.90;;;;;;4722999;30;20041;-81
2021/07/25 09:58:09;;;;;;;8.55;5.25;;;21.20;99.90;;;;;;4725590;30;20057;-82
2021/07/25 10:00:41;;;;;;;7.03;4.80;;;21.10;99.90;;;;;;4721251;30;20574;-82
2021/07/25 10:03:22;;;;;;;11.15;5.63;;;21.30;99.90;;;;;;4718666;30;20119;-82
2021/07/25 10:05:48;;;;;;;7.50;4.95;;;21.20;99.90;;;;;;4726176;30;20504;-82
2021/07/25 10:08:18;;;;;;;8.50;4.85;;;21.00;99.90;;;;;;4723658;30;20068;-82
2021/07/25 10:10:45;;;;;;;7.90;4.82;;;20.90;99.90;;;;;;4726451;30;20514;-82
2021/07/25 10:13:15;;;;;;;8.18;5.40;;;21.10;99.90;;;;;;4723563;30;20110;-82
2021/07/25 10:15:41;;;;;;;6.72;5.20;;;21.10;99.90;;;;;;4724120;30;20048;-82
2021/07/25 10:18:07;;;;;;;10.23;5.30;;;21.10;99.90;;;;;;4727541;30;20187;-82
2021/07/25 10:20:34;;;;;;;7.35;4.70;;;21.30;99.90;;;;;;4721553;30;20036;-82
2021/07/25 10:23:01;;;;;;;8.27;4.55;;;21.60;99.90;;;;;;4729843;30;20076;-82
2021/07/25 10:25:28;;;;;;;9.10;5.28;;;21.50;99.90;;;;;;4720094;30;20050;-82
2021/07/25 10:27:58;;;;;;;9.65;5.07;;;21.70;99.90;;;;;;4720339;30;20056;-82
2021/07/25 10:30:24;;;;;;;8.18;5.55;;;21.70;99.90;;;;;;4723053;30;20041;-83
2021/07/25 10:32:53;;;;;;;8.88;5.85;;;21.80;99.90;;;;;;4721993;30;20044;-82
2021/07/25 10:35:20;;;;;;;8.48;5.05;;;21.80;99.90;;;;;;4724892;30;20056;-82
2021/07/25 10:37:49;;;;;;;9.45;5.18;;;21.70;99.90;;;;;;4722587;30;20052;-82
2021/07/25 10:40:16;;;;;;;9.35;5.30;;;21.70;99.90;;;;;;4720933;30;20068;-82
2021/07/25 10:42:50;;;;;;;6.78;4.47;;;21.90;99.90;;;;;;4723206;30;20036;-81
2021/07/25 10:45:16;;;;;;;7.50;4.75;;;21.80;99.90;;;;;;4720201;30;20037;-82
2021/07/25 10:47:44;;;;;;;10.05;5.22;;;21.90;99.90;;;;;;4724033;30;20049;-82
2021/07/25 10:50:16;;;;;;;7.35;4.18;;;21.90;99.90;;;;;;4723768;30;20492;-82
2021/07/25 10:55:49;;;;;;;8.20;4.95;;;21.80;99.90;;;;;;4720756;30;20070;-82
2021/07/25 10:58:20;;;;;;;7.43;5.50;;;22.00;99.90;;;;;;4713260;30;20056;-82
2021/07/25 11:00:52;;;;;;;7.93;4.78;;;22.30;99.90;;;;;;4728133;30;20444;-82
2021/07/25 11:03:29;;;;;;;10.55;4.97;;;22.50;99.90;;;;;;4723239;30;20060;-82
2021/07/25 11:06:02;;;;;;;5.75;4.20;;;22.80;99.90;;;;;;4727370;30;20586;-82
2021/07/25 11:08:36;;;;;;;6.60;4.10;;;22.90;99.90;;;;;;4723938;30;20393;-81
2021/07/25 11:11:35;;;;;;;6.45;3.92;;;23.00;99.90;;;;;;4723765;30;20052;-82
2021/07/25 11:14:06;;;;;;;6.90;4.20;;;23.20;99.90;;;;;;4723099;30;20047;-82
2021/07/25 11:16:32;;;;;;;7.03;4.13;;;23.20;99.90;;;;;;4724151;30;20044;-82
2021/07/25 11:19:20;;;;;;;7.13;3.90;;;23.10;99.90;;;;;;4725288;30;20052;-82
2021/07/25 11:21:53;;;;;;;6.10;4.10;;;23.00;99.90;;;;;;4724615;30;20053;-81
2021/07/25 11:24:18;;;;;;;6.53;3.92;;;23.00;99.90;;;;;;4723578;30;20043;-82
2021/07/25 11:26:45;;;;;;;7.78;4.20;;;23.20;99.90;;;;;;4720033;30;20056;-82
2021/07/25 11:29:36;;;;;;;6.95;4.38;;;23.40;99.90;;;;;;4723312;30;20512;-82
2021/07/25 11:32:03;;;;;;;7.18;4.10;;;23.60;99.90;;;;;;4719928;30;20060;-82
2021/07/25 11:34:33;;;;;;;5.57;3.95;;;23.60;99.90;;;;;;4721416;30;20334;-82
2021/07/25 11:37:02;;;;;;;6.18;3.83;;;23.40;99.90;;;;;;4722390;30;20818;-82
2021/07/25 11:39:29;;;;;;;6.18;4.28;;;23.30;99.90;;;;;;4722404;30;20124;-82
2021/07/25 11:41:55;;;;;;;8.52;4.55;;;23.50;99.90;;;;;;4718405;30;20460;-82
2021/07/25 11:44:28;;;;;;;6.25;3.80;;;23.70;99.90;;;;;;4718508;30;20045;-82
2021/07/25 11:46:59;;;;;;;7.03;4.95;;;23.70;99.90;;;;;;4724000;30;20052;-82
2021/07/25 11:49:24;;;;;;;6.05;4.25;;;23.70;99.90;;;;;;4725004;30;20467;-82
2021/07/25 11:51:50;;;;;;;7.47;4.47;;;23.60;99.90;;;;;;4726509;30;20452;-82
2021/07/25 11:54:28;;;;;;;7.72;4.20;;;23.60;99.90;;;;;;4718426;30;20476;-82
2021/07/25 11:57:15;;;;;;;5.47;3.95;;;23.60;99.90;;;;;;4726285;30;20060;-82
2021/07/25 12:00:03;;;;;;;7.90;4.95;;;23.60;99.90;;;;;;4720301;30;20102;-82
2021/07/25 12:02:31;;;;;;;7.50;4.10;;;23.80;99.90;;;;;;4714809;30;20273;-82
2021/07/25 12:04:58;;;;;;;6.75;4.20;;;23.80;99.90;;;;;;4722296;30;20431;-82
2021/07/25 12:07:31;;;;;;;6.72;4.47;;;23.90;99.90;;;;;;4721068;30;20105;-82
2021/07/25 12:09:57;;;;;;;6.20;4.10;;;24.10;99.90;;;;;;4721975;30;20083;-82
2021/07/25 12:12:32;;;;;;;6.18;3.78;;;24.10;99.90;;;;;;4718160;30;20767;-82
2021/07/25 12:15:02;;;;;;;6.90;3.35;;;24.10;99.90;;;;;;4721577;30;20048;-82
2021/07/25 12:20:14;;;;;;;5.75;2.97;;;24.30;99.90;;;;;;4724653;30;20454;-82
2021/07/25 12:22:55;;;;;;;6.38;3.60;;;24.00;99.80;;;;;;4722262;30;20040;-82
2021/07/25 12:25:25;;;;;;;6.90;3.40;;;24.20;99.90;;;;;;4722572;30;20098;-81
2021/07/25 12:28:11;;;;;;;6.05;3.78;;;24.10;99.90;;;;;;4723628;30;20049;-82
2021/07/25 12:30:40;;;;;;;6.90;3.70;;;24.30;99.90;;;;;;4727020;30;20056;-82
2021/07/25 12:33:07;;;;;;;7.70;4.13;;;24.30;99.90;;;;;;4725996;30;20053;-82
2021/07/25 12:35:33;;;;;;;5.45;3.30;;;24.40;99.80;;;;;;4724273;30;20072;-82
2021/07/25 12:38:00;;;;;;;9.43;3.70;;;24.20;99.60;;;;;;4727206;30;20131;-82
2021/07/25 12:40:31;;;;;;;6.68;3.45;;;24.10;99.60;;;;;;4712473;30;20584;-82
2021/07/25 12:42:56;;;;;;;7.18;3.58;;;24.20;99.90;;;;;;4721095;30;20048;-82
2021/07/25 12:45:23;;;;;;;5.60;3.42;;;24.30;99.60;;;;;;4723484;30;20821;-82
2021/07/25 12:47:48;;;;;;;6.72;3.47;;;24.00;99.90;;;;;;4720987;30;20052;-82
2021/07/25 12:50:14;;;;;;;8.98;3.67;;;24.00;99.00;;;;;;4725929;30;20076;-82
2021/07/25 12:52:40;;;;;;;8.57;3.83;;;24.10;99.90;;;;;;4726575;30;20550;-82
2021/07/25 12:55:07;;;;;;;6.25;3.50;;;24.00;99.40;;;;;;4726761;30;20053;-82
2021/07/25 12:57:33;;;;;;;6.10;3.33;;;23.70;99.60;;;;;;4720908;30;20049;-82